Time;durP1;ratioP1;P1;durP2;ratioP2;P2;SDS_P1;SDS_P2;PMS_P1;PMS_P2;Temp;Humidity;BMP_temperature;BMP_pressure;BME280_temperature;BME280_humidity;BME280_pressure;Samples;Min_cycle;Max_cycle;Signal;HPM_P1;HPM_P2
2023/11/05 00:01:23;;;;;;;5.55;1.90;;;18.40;54.30;;;;;;5115950;28;20217;-58
2023/11/05 00:03:51;;;;;;;4.03;1.65;;;18.40;54.30;;;;;;5115581;28;20185;-57
2023/11/05 00:06:18;;;;;;;6.00;2.20;;;18.40;54.30;;;;;;5116068;28;20217;-59
2023/11/05 00:08:45;;;;;;;3.65;1.65;;;18.40;54.30;;;;;;5115559;28;20643;-58
2023/11/05 00:11:12;;;;;;;5.55;1.65;;;18.40;54.30;;;;;;5115639;28;20213;-58
2023/11/05 00:13:39;;;;;;;3.97;1.65;;;18.40;54.30;;;;;;5115813;28;20189;-60
2023/11/05 00:16:07;;;;;;;5.95;1.70;;;18.40;54.30;;;;;;5115356;28;20740;-59
2023/11/05 00:18:34;;;;;;;5.03;1.77;;;18.40;54.30;;;;;;5114964;28;20553;-59
2023/11/05 00:21:02;;;;;;;3.45;1.70;;;18.40;54.30;;;;;;5115674;28;20213;-58
2023/11/05 00:23:30;;;;;;;2.58;1.45;;;18.40;54.30;;;;;;5115593;28;20221;-59
2023/11/05 00:25:57;;;;;;;6.22;1.83;;;18.40;54.30;;;;;;5115285;28;20246;-58
2023/11/05 00:28:24;;;;;;;4.93;1.40;;;18.40;54.30;;;;;;5115511;28;20221;-59
2023/11/05 00:30:51;;;;;;;2.78;1.48;;;18.40;54.30;;;;;;5115534;28;20209;-58
2023/11/05 00:33:18;;;;;;;3.58;1.70;;;18.40;54.30;;;;;;5114755;28;20189;-59
2023/11/05 00:35:45;;;;;;;3.85;1.77;;;18.40;54.30;;;;;;5115241;28;20244;-58
2023/11/05 00:38:14;;;;;;;5.32;1.80;;;18.40;54.30;;;;;;5115089;28;20674;-57
2023/11/05 00:40:40;;;;;;;4.13;1.52;;;18.30;54.20;;;;;;5114955;28;20239;-58
2023/11/05 00:43:07;;;;;;;6.18;1.80;;;18.40;54.30;;;;;;5115305;28;20185;-58
2023/11/05 00:45:34;;;;;;;5.75;1.70;;;18.30;54.20;;;;;;5114891;28;20694;-56
2023/11/05 00:48:01;;;;;;;4.40;1.80;;;18.40;54.30;;;;;;5114720;28;20629;-58
2023/11/05 00:50:28;;;;;;;7.47;2.47;;;18.40;54.30;;;;;;5115128;28;20304;-58
2023/11/05 00:52:55;;;;;;;3.78;1.25;;;18.30;54.20;;;;;;5115006;28;20553;-59
2023/11/05 00:55:23;;;;;;;3.15;1.60;;;18.40;54.30;;;;;;5114606;28;20285;-58
2023/11/05 00:57:52;;;;;;;5.60;1.85;;;18.30;54.20;;;;;;5114912;28;20239;-57
2023/11/05 01:00:19;;;;;;;4.18;1.80;;;18.30;54.20;;;;;;5114908;28;20305;-58
2023/11/05 01:02:46;;;;;;;4.75;1.52;;;18.40;54.30;;;;;;5114455;28;20209;-58
2023/11/05 01:05:13;;;;;;;4.10;1.50;;;18.40;54.30;;;;;;5114734;28;20582;-57
2023/11/05 01:07:40;;;;;;;4.72;1.77;;;18.30;54.20;;;;;;5114732;28;20191;-58
2023/11/05 01:10:07;;;;;;;3.53;1.50;;;18.30;54.20;;;;;;5114419;28;20248;-58
2023/11/05 01:12:36;;;;;;;3.70;1.30;;;18.30;54.20;;;;;;5114670;28;20189;-58
2023/11/05 01:15:03;;;;;;;3.95;1.40;;;18.30;54.20;;;;;;5114537;28;20213;-56
2023/11/05 01:17:31;;;;;;;3.38;1.23;;;18.30;54.20;;;;;;5114174;28;20189;-57
2023/11/05 01:19:58;;;;;;;3.55;1.33;;;18.30;54.30;;;;;;5114203;28;20624;-58
2023/11/05 01:22:26;;;;;;;4.38;1.60;;;18.30;54.20;;;;;;5114459;28;20185;-57
2023/11/05 01:24:52;;;;;;;4.05;1.38;;;18.30;54.20;;;;;;5111924;28;20188;-58
2023/11/05 01:27:19;;;;;;;3.55;1.33;;;18.30;54.20;;;;;;5113743;28;20236;-59
2023/11/05 01:29:48;;;;;;;5.70;1.55;;;18.30;54.30;;;;;;5114364;28;20189;-58
2023/11/05 01:32:15;;;;;;;4.10;1.27;;;18.30;54.20;;;;;;5114015;28;20192;-58
2023/11/05 01:34:42;;;;;;;3.92;1.50;;;18.30;54.30;;;;;;5113691;28;20706;-58
2023/11/05 01:37:09;;;;;;;3.83;1.48;;;18.30;54.30;;;;;;5114302;28;20213;-56
2023/11/05 01:39:36;;;;;;;3.72;1.38;;;18.30;54.30;;;;;;5113549;28;20192;-58
2023/11/05 01:42:03;;;;;;;4.38;1.50;;;18.30;54.30;;;;;;5114185;28;20213;-57
2023/11/05 01:44:30;;;;;;;2.60;1.30;;;18.30;54.40;;;;;;5113726;28;20225;-57
2023/11/05 01:46:58;;;;;;;3.58;1.33;;;18.30;54.40;;;;;;5113594;28;20304;-58
2023/11/05 01:49:26;;;;;;;3.25;1.40;;;18.30;55.10;;;;;;5113946;28;20213;-58
2023/11/05 01:51:55;;;;;;;4.47;1.70;;;18.30;54.40;;;;;;5114090;28;20217;-58
2023/11/05 01:54:23;;;;;;;4.60;1.50;;;18.30;55.10;;;;;;5113441;28;20193;-58
2023/11/05 01:56:50;;;;;;;4.70;1.63;;;18.30;54.40;;;;;;5113805;28;20260;-59
2023/11/05 01:59:17;;;;;;;7.00;2.10;;;18.30;54.40;;;;;;5113684;28;20185;-58
2023/11/05 02:01:46;;;;;;;4.13;1.63;;;18.30;54.50;;;;;;5113315;28;20394;-58
2023/11/05 02:04:14;;;;;;;4.63;1.73;;;18.30;54.50;;;;;;5113651;28;20276;-58
2023/11/05 02:06:41;;;;;;;3.13;1.35;;;18.30;54.50;;;;;;5113649;28;20213;-59
2023/11/05 02:09:08;;;;;;;3.47;1.10;;;18.30;54.50;;;;;;5113182;28;20268;-57
2023/11/05 02:11:35;;;;;;;4.53;1.40;;;18.30;54.50;;;;;;5113611;28;20213;-59
2023/11/05 02:14:02;;;;;;;3.35;1.63;;;18.20;54.40;;;;;;5112948;28;20189;-57
2023/11/05 02:16:32;;;;;;;3.47;1.27;;;18.30;54.50;;;;;;5112788;28;20702;-56
2023/11/05 02:18:59;;;;;;;5.00;1.20;;;18.30;54.50;;;;;;5113343;28;20185;-58
2023/11/05 02:21:31;;;;;;;1.88;1.20;;;18.30;54.50;;;;;;5113023;28;20694;-58
2023/11/05 02:24:00;;;;;;;5.63;1.55;;;18.20;54.40;;;;;;5112965;28;20274;-58
2023/11/05 02:26:27;;;;;;;3.72;1.30;;;18.30;54.50;;;;;;5113077;28;20308;-58
2023/11/05 02:28:54;;;;;;;4.57;1.25;;;18.30;54.50;;;;;;5113279;28;20191;-58
2023/11/05 02:31:21;;;;;;;3.53;1.30;;;18.20;54.40;;;;;;5112816;28;20296;-58
2023/11/05 02:33:48;;;;;;;3.17;1.25;;;18.20;54.40;;;;;;5112900;28;20675;-58
2023/11/05 02:36:15;;;;;;;3.70;1.10;;;18.20;54.40;;;;;;5112963;28;20600;-59
2023/11/05 02:38:42;;;;;;;3.05;1.50;;;18.20;54.40;;;;;;5113161;28;20190;-58
2023/11/05 02:41:11;;;;;;;4.32;1.30;;;18.20;54.40;;;;;;5113182;28;20213;-59
2023/11/05 02:43:38;;;;;;;2.67;1.50;;;18.20;54.40;;;;;;5112730;28;20639;-59
2023/11/05 02:46:06;;;;;;;4.28;1.60;;;18.20;54.40;;;;;;5112735;28;20300;-56
2023/11/05 02:48:33;;;;;;;2.85;1.20;;;18.20;54.40;;;;;;5112879;28;20193;-58
2023/11/05 02:51:00;;;;;;;3.28;1.30;;;18.20;54.40;;;;;;5112979;28;20221;-56
2023/11/05 02:53:27;;;;;;;4.45;1.48;;;18.20;54.40;;;;;;5112841;28;20581;-57
2023/11/05 02:55:54;;;;;;;2.45;1.15;;;18.20;54.30;;;;;;5112706;28;20309;-57
2023/11/05 02:58:23;;;;;;;4.43;1.38;;;18.20;54.40;;;;;;5112779;28;20277;-56
2023/11/05 03:00:50;;;;;;;2.50;1.00;;;18.20;54.30;;;;;;5112791;28;20304;-55
2023/11/05 03:03:17;;;;;;;2.30;1.10;;;18.20;54.30;;;;;;5112566;28;20181;-58
2023/11/05 03:05:44;;;;;;;2.15;1.20;;;18.20;54.30;;;;;;5112769;28;20221;-55
2023/11/05 03:08:12;;;;;;;3.05;1.23;;;18.20;54.30;;;;;;5112708;28;20192;-58
2023/11/05 03:10:39;;;;;;;3.17;1.40;;;18.20;54.30;;;;;;5112401;28;20221;-58
2023/11/05 03:13:07;;;;;;;3.03;1.30;;;18.20;54.40;;;;;;5112731;28;20213;-58
2023/11/05 03:15:35;;;;;;;5.05;1.30;;;18.20;54.30;;;;;;5112557;28;20229;-59
2023/11/05 03:18:02;;;;;;;3.35;1.42;;;18.20;54.30;;;;;;5112046;28;20636;-59
2023/11/05 03:20:30;;;;;;;4.05;1.05;;;18.20;54.30;;;;;;5112198;28;20593;-58
2023/11/05 03:22:57;;;;;;;2.97;1.10;;;18.20;54.30;;;;;;5112611;28;20225;-58
2023/11/05 03:25:24;;;;;;;2.45;1.00;;;18.20;54.30;;;;;;5111884;28;20615;-58
2023/11/05 03:27:51;;;;;;;2.97;1.10;;;18.20;54.30;;;;;;5115585;28;20190;-59
2023/11/05 03:30:18;;;;;;;2.83;1.23;;;18.20;54.40;;;;;;5116559;28;20281;-58
2023/11/05 03:32:46;;;;;;;2.60;1.20;;;18.20;54.30;;;;;;5116193;28;20195;-59
2023/11/05 03:35:13;;;;;;;2.78;1.20;;;18.20;54.30;;;;;;5116165;28;20706;-58
2023/11/05 03:37:41;;;;;;;2.92;1.15;;;18.20;54.30;;;;;;5116464;28;20225;-58
2023/11/05 03:40:08;;;;;;;2.60;1.30;;;18.20;54.40;;;;;;5116042;28;20276;-59
2023/11/05 03:42:35;;;;;;;4.90;1.20;;;18.20;54.40;;;;;;5116484;28;20221;-59
2023/11/05 03:45:02;;;;;;;2.35;1.08;;;18.20;54.40;;;;;;5116051;28;20673;-58
2023/11/05 03:47:29;;;;;;;3.38;1.40;;;18.20;54.40;;;;;;5115573;28;20298;-59
2023/11/05 03:49:57;;;;;;;3.75;1.13;;;18.20;54.40;;;;;;5116001;28;20685;-58
2023/11/05 03:52:24;;;;;;;3.05;1.35;;;18.20;54.40;;;;;;5116479;28;20217;-58
2023/11/05 03:54:52;;;;;;;2.33;1.10;;;18.20;54.40;;;;;;5115474;28;20650;-58
2023/11/05 03:57:19;;;;;;;3.45;1.40;;;18.20;54.40;;;;;;5116151;28;20323;-58
2023/11/05 03:59:46;;;;;;;2.80;1.13;;;18.20;54.40;;;;;;5116100;28;20185;-57
2023/11/05 04:02:13;;;;;;;2.58;1.20;;;18.20;54.40;;;;;;5115950;28;20253;-60
2023/11/05 04:04:40;;;;;;;2.95;1.33;;;18.20;54.40;;;;;;5116000;28;20190;-57
2023/11/05 04:07:08;;;;;;;3.30;1.20;;;18.20;54.30;;;;;;5115826;28;20220;-59
2023/11/05 04:09:35;;;;;;;3.83;1.20;;;18.20;54.30;;;;;;5115503;28;20213;-59
2023/11/05 04:12:03;;;;;;;3.85;1.10;;;18.20;54.30;;;;;;5115959;28;20216;-58
2023/11/05 04:14:30;;;;;;;3.78;1.30;;;18.10;54.20;;;;;;5115551;28;20186;-58
2023/11/05 04:16:57;;;;;;;1.73;1.00;;;18.10;54.30;;;;;;5115278;28;20320;-58
2023/11/05 04:19:24;;;;;;;2.40;1.00;;;18.10;54.30;;;;;;5115802;28;20268;-58
2023/11/05 04:21:51;;;;;;;2.22;0.85;;;18.20;54.30;;;;;;5115340;28;20209;-59
2023/11/05 04:24:19;;;;;;;1.70;1.23;;;18.10;54.20;;;;;;5114965;28;20556;-57
2023/11/05 04:26:46;;;;;;;3.10;1.13;;;18.10;54.20;;;;;;5115572;28;20213;-58
2023/11/05 04:29:13;;;;;;;4.65;1.30;;;18.10;54.10;;;;;;5115541;28;20220;-56
2023/11/05 04:31:40;;;;;;;2.63;1.10;;;18.10;54.10;;;;;;5115263;28;20219;-58
2023/11/05 04:34:07;;;;;;;2.55;1.08;;;18.10;54.20;;;;;;5114873;28;20561;-59
2023/11/05 04:43:20;;;;;;;2.20;1.10;;;18.10;54.00;;;;;;5115509;28;20226;-59
2023/11/05 04:45:46;;;;;;;5.80;1.30;;;18.10;54.10;;;;;;5114636;28;20739;-58
2023/11/05 04:48:13;;;;;;;3.50;1.30;;;18.10;54.20;;;;;;5114776;28;20685;-59
2023/11/05 04:50:41;;;;;;;3.47;1.38;;;18.10;54.10;;;;;;5115076;28;20296;-59
2023/11/05 04:53:08;;;;;;;3.10;1.33;;;18.10;54.10;;;;;;5114733;28;20186;-58
2023/11/05 04:55:35;;;;;;;2.30;1.20;;;18.10;54.10;;;;;;5115046;28;20295;-59
2023/11/05 04:58:02;;;;;;;2.55;1.17;;;18.10;54.10;;;;;;5114574;28;20712;-58
2023/11/05 05:00:30;;;;;;;7.72;1.60;;;18.10;54.10;;;;;;5114487;28;20185;-59
2023/11/05 05:02:57;;;;;;;4.53;1.40;;;18.10;54.10;;;;;;5114586;28;20231;-55
2023/11/05 05:05:24;;;;;;;3.15;1.17;;;18.10;54.10;;;;;;5114774;28;20212;-54
2023/11/05 05:07:51;;;;;;;3.90;1.45;;;18.10;54.00;;;;;;5114432;28;20366;-57
2023/11/05 05:10:18;;;;;;;4.13;1.20;;;18.00;54.60;;;;;;5114559;28;20620;-58
2023/11/05 05:12:45;;;;;;;5.18;1.35;;;18.10;54.00;;;;;;5114337;28;20228;-55
2023/11/05 05:15:12;;;;;;;3.08;1.30;;;18.00;54.00;;;;;;5114355;28;20220;-57
2023/11/05 05:17:40;;;;;;;4.22;1.45;;;18.00;53.90;;;;;;5114367;28;20233;-59
2023/11/05 05:20:09;;;;;;;2.95;1.25;;;18.00;53.90;;;;;;5114456;28;20608;-59
2023/11/05 05:22:36;;;;;;;3.22;1.38;;;18.00;53.90;;;;;;5114039;28;20590;-57
2023/11/05 05:25:03;;;;;;;2.53;1.10;;;18.00;54.00;;;;;;5114452;28;20221;-56
2023/11/05 05:27:30;;;;;;;2.15;1.10;;;18.00;53.90;;;;;;5114297;28;20663;-57
2023/11/05 05:29:57;;;;;;;2.63;1.30;;;18.00;54.00;;;;;;5113995;28;20196;-57
2023/11/05 05:32:24;;;;;;;2.55;1.15;;;18.00;54.00;;;;;;5114337;28;20213;-58
2023/11/05 05:34:52;;;;;;;3.42;1.42;;;18.00;54.00;;;;;;5114006;28;20247;-58
2023/11/05 05:37:19;;;;;;;3.75;1.42;;;18.00;54.00;;;;;;5113992;28;20615;-60
2023/11/05 05:39:47;;;;;;;6.15;1.65;;;18.00;54.00;;;;;;5114192;28;20185;-58
2023/11/05 05:42:14;;;;;;;4.53;1.55;;;18.00;53.90;;;;;;5114199;28;20254;-58
2023/11/05 05:44:41;;;;;;;5.97;1.35;;;18.00;54.00;;;;;;5113427;28;20673;-58
2023/11/05 05:47:08;;;;;;;2.67;1.50;;;18.00;53.90;;;;;;5113878;28;20300;-58
2023/11/05 05:49:35;;;;;;;3.33;1.40;;;18.00;54.00;;;;;;5113000;28;20187;-59
2023/11/05 05:52:04;;;;;;;4.32;1.48;;;18.00;54.00;;;;;;5113695;28;20305;-59
2023/11/05 05:54:31;;;;;;;3.00;1.50;;;18.00;53.90;;;;;;5113708;28;20651;-58
2023/11/05 05:56:58;;;;;;;3.47;1.48;;;18.00;53.90;;;;;;5113518;28;20228;-58
2023/11/05 05:59:25;;;;;;;4.97;1.58;;;18.00;53.90;;;;;;5113459;28;20250;-56
2023/11/05 06:01:52;;;;;;;2.50;1.55;;;18.00;54.00;;;;;;5113865;28;20322;-57
2023/11/05 06:04:19;;;;;;;4.20;1.17;;;18.00;53.90;;;;;;5113712;28;20196;-59
2023/11/05 06:06:46;;;;;;;5.43;1.50;;;18.00;54.00;;;;;;5113029;28;20694;-59
2023/11/05 06:09:19;;;;;;;2.47;1.27;;;18.00;54.00;;;;;;5113835;28;20264;-59
2023/11/05 06:11:47;;;;;;;3.45;1.45;;;18.00;53.90;;;;;;5113664;28;20212;-60
2023/11/05 06:14:14;;;;;;;3.40;1.60;;;18.00;53.90;;;;;;5109257;28;20189;-59
2023/11/05 06:16:41;;;;;;;3.80;1.58;;;18.00;53.90;;;;;;5101910;28;20325;-58
2023/11/05 06:19:08;;;;;;;3.58;1.55;;;17.90;53.80;;;;;;5104677;28;20205;-58
2023/11/05 06:21:36;;;;;;;4.85;1.33;;;18.00;53.90;;;;;;5112696;28;20221;-57
2023/11/05 06:24:03;;;;;;;2.97;1.52;;;18.00;53.90;;;;;;5095832;28;20201;-58
2023/11/05 06:26:31;;;;;;;4.10;1.40;;;18.00;53.90;;;;;;5092648;28;20224;-59
2023/11/05 06:28:58;;;;;;;3.42;1.60;;;18.00;53.90;;;;;;5092566;28;20186;-58
2023/11/05 06:31:25;;;;;;;1.92;1.20;;;18.00;53.70;;;;;;5092729;28;20602;-58
2023/11/05 06:33:52;;;;;;;5.90;1.50;;;18.00;53.70;;;;;;5092823;28;20221;-58
2023/11/05 06:36:19;;;;;;;4.72;1.60;;;18.00;53.70;;;;;;5092775;28;20230;-58
2023/11/05 06:38:46;;;;;;;3.38;1.27;;;17.90;53.70;;;;;;5092437;28;20621;-59
2023/11/05 06:41:13;;;;;;;4.20;1.27;;;18.00;53.50;;;;;;5092744;28;20245;-58
2023/11/05 06:43:41;;;;;;;3.58;1.42;;;17.90;54.00;;;;;;5092099;28;20232;-58
2023/11/05 06:46:08;;;;;;;4.80;1.45;;;17.90;53.40;;;;;;5092428;28;20209;-58
2023/11/05 06:48:36;;;;;;;4.72;1.40;;;17.90;53.40;;;;;;5092601;28;20272;-59
2023/11/05 06:51:04;;;;;;;5.47;1.88;;;18.00;53.50;;;;;;5092262;28;20214;-58
2023/11/05 06:53:31;;;;;;;3.90;1.30;;;17.90;53.40;;;;;;5092257;28;20197;-55
2023/11/05 06:55:58;;;;;;;3.42;1.30;;;17.90;53.40;;;;;;5092512;28;20304;-58
2023/11/05 06:58:25;;;;;;;2.90;1.15;;;17.90;53.40;;;;;;5092002;28;20222;-57
2023/11/05 07:00:54;;;;;;;5.45;1.80;;;17.90;53.40;;;;;;5092286;28;20213;-59
2023/11/05 07:03:23;;;;;;;3.72;1.48;;;17.90;53.30;;;;;;5092460;28;20200;-58
2023/11/05 07:05:51;;;;;;;3.20;1.33;;;17.90;53.30;;;;;;5092059;28;20197;-59
2023/11/05 07:08:18;;;;;;;5.82;1.52;;;17.90;53.30;;;;;;5092412;28;20196;-58
2023/11/05 07:10:45;;;;;;;2.35;1.40;;;17.90;53.20;;;;;;5092296;28;20220;-58
2023/11/05 07:13:12;;;;;;;6.78;1.88;;;17.90;53.20;;;;;;5091858;28;20647;-58
2023/11/05 07:15:39;;;;;;;4.53;1.77;;;17.90;53.20;;;;;;5091951;28;20640;-59
2023/11/05 07:18:07;;;;;;;3.65;1.48;;;17.90;53.20;;;;;;5092198;28;20214;-59
2023/11/05 07:20:35;;;;;;;4.30;1.40;;;17.90;53.20;;;;;;5091864;28;20182;-59
2023/11/05 07:23:03;;;;;;;3.20;1.20;;;17.90;53.20;;;;;;5092252;28;20204;-59
2023/11/05 07:25:31;;;;;;;3.85;1.27;;;17.90;53.20;;;;;;5092323;28;20193;-59
2023/11/05 07:27:59;;;;;;;4.53;1.30;;;17.90;53.20;;;;;;5092077;28;20217;-57
2023/11/05 07:30:26;;;;;;;2.92;1.33;;;17.90;53.20;;;;;;5092183;28;20191;-59
2023/11/05 07:32:53;;;;;;;4.05;1.60;;;17.90;53.20;;;;;;5092306;28;20301;-58
2023/11/05 07:35:21;;;;;;;5.85;1.25;;;17.90;53.20;;;;;;5091269;28;20677;-58
2023/11/05 07:37:49;;;;;;;4.00;1.52;;;17.90;53.20;;;;;;5091898;28;20226;-56
2023/11/05 07:40:16;;;;;;;3.70;1.45;;;17.90;53.20;;;;;;5092119;28;20197;-59
2023/11/05 07:42:43;;;;;;;3.00;1.38;;;17.90;53.20;;;;;;5091564;28;20301;-58
2023/11/05 07:45:11;;;;;;;5.15;1.70;;;17.90;53.20;;;;;;5091816;28;20640;-58
2023/11/05 07:47:39;;;;;;;2.15;1.30;;;17.90;53.20;;;;;;5091825;28;20214;-59
2023/11/05 07:50:09;;;;;;;4.75;1.45;;;17.90;53.20;;;;;;5091675;28;20335;-59
2023/11/05 07:52:40;;;;;;;3.58;1.35;;;17.90;53.20;;;;;;5092182;28;20220;-58
2023/11/05 07:55:08;;;;;;;4.40;1.67;;;17.90;53.20;;;;;;5091673;28;20182;-58
2023/11/05 07:57:36;;;;;;;3.83;1.23;;;17.90;53.20;;;;;;5091043;28;20316;-57
2023/11/05 08:00:05;;;;;;;3.33;1.48;;;17.90;53.20;;;;;;5091900;28;20190;-59
2023/11/05 08:02:33;;;;;;;3.55;1.60;;;17.90;53.20;;;;;;5091996;28;20267;-58
2023/11/05 08:05:00;;;;;;;4.00;1.70;;;17.90;53.20;;;;;;5091291;28;20784;-58
2023/11/05 08:07:29;;;;;;;4.88;1.50;;;17.90;53.20;;;;;;5091980;28;20221;-57
2023/11/05 08:09:57;;;;;;;3.30;1.40;;;17.90;53.20;;;;;;5091628;28;20236;-58
2023/11/05 08:12:24;;;;;;;3.95;1.50;;;17.90;53.20;;;;;;5092098;28;20221;-56
2023/11/05 08:14:51;;;;;;;4.28;1.25;;;17.90;53.20;;;;;;5095468;28;20194;-59
2023/11/05 08:17:18;;;;;;;3.22;1.50;;;17.90;53.20;;;;;;5095489;28;20229;-59
2023/11/05 08:19:46;;;;;;;3.42;1.30;;;17.90;53.20;;;;;;5094754;28;20651;-58
2023/11/05 08:22:13;;;;;;;4.20;1.60;;;17.90;53.20;;;;;;5095418;28;20218;-58
2023/11/05 08:24:40;;;;;;;4.80;1.60;;;17.90;53.20;;;;;;5095034;28;20193;-59
2023/11/05 08:27:08;;;;;;;3.58;1.50;;;17.90;53.20;;;;;;5094887;28;20224;-59
2023/11/05 08:29:35;;;;;;;2.40;1.40;;;17.80;53.10;;;;;;5095311;28;20197;-59
2023/11/05 08:32:02;;;;;;;4.35;1.60;;;17.90;53.20;;;;;;5095078;28;20597;-59
2023/11/05 08:34:29;;;;;;;5.68;1.60;;;17.80;53.10;;;;;;5094522;28;20233;-59
2023/11/05 08:36:55;;;;;;;4.30;1.50;;;17.80;53.00;;;;;;5094642;28;20218;-58
2023/11/05 08:39:22;;;;;;;3.88;1.60;;;17.80;53.00;;;;;;5095186;28;20198;-57
2023/11/05 08:41:49;;;;;;;4.43;1.58;;;17.90;53.20;;;;;;5094749;28;20252;-57
2023/11/05 08:44:18;;;;;;;4.72;1.48;;;17.90;53.10;;;;;;5095180;28;20273;-59
2023/11/05 08:46:45;;;;;;;6.93;1.80;;;17.80;53.00;;;;;;5094779;28;20249;-59
2023/11/05 08:49:12;;;;;;;3.65;1.58;;;17.80;53.00;;;;;;5094409;28;20190;-58
2023/11/05 08:51:39;;;;;;;3.80;1.67;;;17.90;53.10;;;;;;5094732;28;20218;-59
2023/11/05 08:54:06;;;;;;;4.03;1.48;;;17.80;52.90;;;;;;5094713;28;20284;-59
2023/11/05 08:56:33;;;;;;;3.42;1.50;;;17.90;53.00;;;;;;5094274;28;20220;-57
2023/11/05 08:59:00;;;;;;;3.58;1.40;;;17.90;53.00;;;;;;5094562;28;20226;-58
2023/11/05 09:01:28;;;;;;;3.28;1.30;;;17.80;52.90;;;;;;5094266;28;20611;-56
2023/11/05 09:03:55;;;;;;;4.97;1.70;;;17.80;52.90;;;;;;5094119;28;20186;-59
2023/11/05 09:06:23;;;;;;;4.90;1.50;;;17.80;52.90;;;;;;5094438;28;20563;-59
2023/11/05 09:08:50;;;;;;;4.70;1.67;;;17.90;53.00;;;;;;5094385;28;20267;-56
2023/11/05 09:11:17;;;;;;;4.68;1.70;;;17.80;52.90;;;;;;5094019;28;20301;-57
2023/11/05 09:13:45;;;;;;;5.05;1.55;;;17.80;52.90;;;;;;5094374;28;20189;-59
2023/11/05 09:16:12;;;;;;;4.13;1.80;;;17.90;52.90;;;;;;5093749;28;20630;-57
2023/11/05 09:18:41;;;;;;;3.85;1.45;;;17.90;52.90;;;;;;5093487;28;20617;-57
2023/11/05 09:21:08;;;;;;;4.47;1.38;;;17.80;52.80;;;;;;5094057;28;20223;-58
2023/11/05 09:23:34;;;;;;;5.78;1.70;;;17.80;52.90;;;;;;5094078;28;20286;-58
2023/11/05 09:26:02;;;;;;;2.97;1.40;;;17.80;52.80;;;;;;5093649;28;20212;-58
2023/11/05 09:28:29;;;;;;;2.42;1.45;;;17.80;52.80;;;;;;5094049;28;20563;-58
2023/11/05 09:30:57;;;;;;;5.13;1.52;;;17.80;52.80;;;;;;5094143;28;20191;-59
2023/11/05 09:33:24;;;;;;;6.85;1.98;;;17.80;52.80;;;;;;5093500;28;20197;-58
2023/11/05 09:35:52;;;;;;;3.17;1.60;;;17.80;52.80;;;;;;5093816;28;20303;-59
2023/11/05 09:38:19;;;;;;;5.30;1.63;;;17.80;52.80;;;;;;5093847;28;20229;-59
2023/11/05 09:40:48;;;;;;;2.90;1.40;;;17.80;52.70;;;;;;5093434;28;20277;-59
2023/11/05 09:43:17;;;;;;;4.25;2.05;;;17.80;52.80;;;;;;5093972;28;20236;-56
2023/11/05 09:45:49;;;;;;;3.92;1.58;;;17.90;52.90;;;;;;5093632;28;20244;-57
2023/11/05 09:48:17;;;;;;;3.15;1.50;;;17.80;52.70;;;;;;5093558;28;20330;-59
2023/11/05 09:50:44;;;;;;;5.38;1.80;;;17.80;52.70;;;;;;5093561;28;20712;-59
2023/11/05 09:53:14;;;;;;;4.97;2.20;;;17.90;52.80;;;;;;5093827;28;20301;-58
2023/11/05 09:55:42;;;;;;;3.92;1.45;;;17.80;52.70;;;;;;5093149;28;20272;-58
2023/11/05 09:58:09;;;;;;;4.90;1.67;;;17.80;52.70;;;;;;5093372;28;20321;-58
2023/11/05 10:00:37;;;;;;;10.55;2.25;;;17.80;52.70;;;;;;5093546;28;20271;-59
2023/11/05 10:03:07;;;;;;;2.13;1.38;;;17.90;52.70;;;;;;5092791;28;20305;-59
2023/11/05 10:05:35;;;;;;;6.55;1.67;;;17.80;52.70;;;;;;5093101;28;20656;-59
2023/11/05 10:08:05;;;;;;;4.57;1.40;;;17.80;52.60;;;;;;5093483;28;20218;-58
2023/11/05 10:10:33;;;;;;;3.00;1.30;;;17.80;52.60;;;;;;5092863;28;20551;-59
2023/11/05 10:13:00;;;;;;;4.47;1.80;;;17.80;52.60;;;;;;5093061;28;20765;-59
2023/11/05 10:15:27;;;;;;;5.63;1.98;;;17.80;52.60;;;;;;5093266;28;20264;-58
2023/11/05 10:17:55;;;;;;;4.00;1.55;;;17.80;52.60;;;;;;5092651;28;20320;-58
2023/11/05 10:20:23;;;;;;;4.05;1.75;;;17.80;52.60;;;;;;5092791;28;20233;-59
2023/11/05 10:23:01;;;;;;;3.53;1.50;;;17.80;52.60;;;;;;5093360;28;20214;-59
2023/11/05 10:25:28;;;;;;;5.55;1.75;;;17.80;52.60;;;;;;5092667;28;20213;-59
2023/11/05 10:27:57;;;;;;;5.82;1.85;;;17.80;52.60;;;;;;5092938;28;20224;-57
2023/11/05 10:30:26;;;;;;;3.33;1.70;;;17.80;52.60;;;;;;5092906;28;20186;-58
2023/11/05 10:32:54;;;;;;;3.72;1.52;;;17.80;52.60;;;;;;5092199;28;20214;-58
2023/11/05 10:35:22;;;;;;;4.90;1.60;;;17.80;52.60;;;;;;5092157;28;20313;-57
2023/11/05 10:37:51;;;;;;;3.75;1.55;;;17.80;52.60;;;;;;5092554;28;20659;-57
2023/11/05 10:40:19;;;;;;;6.55;1.83;;;17.80;52.60;;;;;;5092404;28;20277;-59
2023/11/05 10:42:48;;;;;;;3.75;1.20;;;17.80;52.60;;;;;;5092972;28;20300;-59
2023/11/05 10:45:17;;;;;;;3.33;1.58;;;17.80;52.60;;;;;;5092638;28;20186;-58
2023/11/05 10:47:46;;;;;;;5.13;1.58;;;17.80;52.60;;;;;;5092313;28;20263;-59
2023/11/05 10:50:23;;;;;;;5.32;1.58;;;17.80;52.50;;;;;;5092643;28;20194;-59
2023/11/05 10:52:52;;;;;;;2.58;1.60;;;17.80;52.60;;;;;;5092733;28;20243;-59
2023/11/05 10:55:29;;;;;;;3.97;1.70;;;17.80;52.60;;;;;;5091919;28;20559;-59
2023/11/05 10:57:56;;;;;;;5.30;1.60;;;17.80;52.60;;;;;;5092168;28;20687;-58
2023/11/05 11:03:40;;;;;;;5.85;2.00;;;17.80;52.60;;;;;;5089472;27;20561;-58
2023/11/05 11:06:07;;;;;;;5.00;1.60;;;17.80;53.20;;;;;;5089877;28;20289;-57
2023/11/05 11:08:35;;;;;;;6.43;2.22;;;17.80;52.60;;;;;;5090113;28;20220;-57
2023/11/05 11:11:23;;;;;;;4.40;1.70;;;17.80;53.20;;;;;;5089496;28;20288;-58
2023/11/05 11:13:54;;;;;;;4.57;1.60;;;17.80;52.60;;;;;;5089550;28;20643;-57
2023/11/05 11:16:23;;;;;;;3.50;1.55;;;17.80;52.60;;;;;;5089692;28;20190;-58
2023/11/05 11:18:54;;;;;;;5.35;1.63;;;17.80;52.60;;;;;;5089075;28;20281;-59
2023/11/05 11:21:21;;;;;;;4.63;1.50;;;17.80;52.70;;;;;;5089244;28;20586;-58
2023/11/05 11:23:50;;;;;;;6.22;1.60;;;17.80;52.60;;;;;;5089697;28;20196;-58
2023/11/05 11:26:22;;;;;;;4.60;1.70;;;17.80;52.60;;;;;;5089159;28;20320;-58
2023/11/05 11:29:01;;;;;;;6.72;1.90;;;17.80;52.60;;;;;;5089599;28;20221;-57
2023/11/05 11:31:28;;;;;;;5.10;1.50;;;17.80;52.60;;;;;;5089589;28;20291;-56
2023/11/05 11:33:57;;;;;;;5.72;1.52;;;17.80;52.70;;;;;;5089304;28;20195;-57
2023/11/05 11:36:24;;;;;;;5.85;1.30;;;17.80;52.60;;;;;;5089068;28;20222;-59
2023/11/05 11:38:51;;;;;;;3.85;1.50;;;17.80;52.70;;;;;;5088991;28;20215;-57
2023/11/05 11:41:19;;;;;;;3.70;1.73;;;17.80;52.70;;;;;;5089122;28;20222;-58
2023/11/05 11:43:46;;;;;;;6.05;1.90;;;17.80;52.70;;;;;;5088986;28;20703;-56
2023/11/05 11:46:13;;;;;;;5.93;1.85;;;17.80;52.70;;;;;;5088830;28;20189;-56
2023/11/05 11:48:40;;;;;;;4.68;1.58;;;17.80;52.70;;;;;;5089011;28;20214;-57
2023/11/05 11:51:08;;;;;;;3.63;1.52;;;17.80;52.70;;;;;;5089160;28;20270;-57
2023/11/05 11:53:38;;;;;;;5.75;1.50;;;17.80;52.70;;;;;;5089036;28;20759;-58
2023/11/05 11:56:06;;;;;;;5.10;1.70;;;17.80;52.70;;;;;;5088525;28;20197;-58
2023/11/05 11:58:37;;;;;;;5.50;1.95;;;17.80;52.60;;;;;;5089006;28;20305;-57
2023/11/05 12:01:04;;;;;;;3.88;1.65;;;17.80;52.60;;;;;;5088529;28;20663;-58
2023/11/05 12:03:32;;;;;;;4.88;1.80;;;17.80;52.60;;;;;;5088265;28;20230;-59
2023/11/05 12:05:59;;;;;;;4.82;1.85;;;17.80;52.60;;;;;;5088791;28;20196;-58
2023/11/05 12:08:38;;;;;;;3.65;1.63;;;17.80;52.60;;;;;;5088967;28;20313;-57
2023/11/05 12:11:09;;;;;;;5.60;1.90;;;17.80;52.60;;;;;;5088471;28;20747;-58
2023/11/05 12:13:39;;;;;;;3.22;1.40;;;17.80;52.60;;;;;;5083276;28;20246;-58
2023/11/05 12:16:08;;;;;;;6.10;1.92;;;17.80;52.60;;;;;;5074434;28;20652;-58
2023/11/05 12:18:35;;;;;;;6.22;1.80;;;17.80;52.60;;;;;;5075112;28;20211;-58
2023/11/05 12:21:03;;;;;;;5.97;1.73;;;17.80;52.60;;;;;;5075065;28;20275;-58
2023/11/05 12:23:30;;;;;;;5.90;1.83;;;17.80;52.60;;;;;;5074845;28;20265;-56
2023/11/05 12:25:59;;;;;;;4.22;1.60;;;17.80;52.60;;;;;;5074969;28;20266;-57
2023/11/05 12:28:28;;;;;;;5.72;1.80;;;17.80;52.60;;;;;;5075209;28;20639;-56
2023/11/05 12:30:57;;;;;;;4.28;1.60;;;17.80;52.60;;;;;;5074592;28;20194;-56
2023/11/05 12:33:24;;;;;;;5.10;1.52;;;17.80;52.60;;;;;;5074857;28;20222;-56
2023/11/05 12:35:51;;;;;;;5.05;1.48;;;17.80;52.70;;;;;;5074771;28;20194;-56
2023/11/05 12:38:19;;;;;;;4.53;1.52;;;17.80;52.60;;;;;;5074624;28;20223;-58
2023/11/05 12:40:46;;;;;;;5.10;1.75;;;17.80;52.70;;;;;;5074776;28;20218;-58
2023/11/05 12:43:14;;;;;;;3.22;1.40;;;17.80;52.60;;;;;;5074446;28;20266;-58
2023/11/05 12:45:41;;;;;;;5.55;1.65;;;17.80;52.60;;;;;;5073921;28;20701;-58
2023/11/05 12:48:08;;;;;;;5.22;1.77;;;17.80;52.60;;;;;;5074603;28;20230;-56
2023/11/05 12:50:35;;;;;;;6.38;2.00;;;17.80;52.70;;;;;;5074284;28;20572;-57
2023/11/05 12:53:03;;;;;;;5.50;1.52;;;17.80;52.70;;;;;;5073899;28;20604;-56
2023/11/05 12:55:30;;;;;;;6.55;1.65;;;17.80;52.70;;;;;;5074411;28;20182;-57
2023/11/05 12:57:58;;;;;;;3.13;1.35;;;17.80;52.70;;;;;;5074426;28;20219;-58
2023/11/05 13:00:26;;;;;;;4.40;1.98;;;17.80;52.70;;;;;;5074014;28;20191;-57